Vidnoe — UBDU — position and weather

sailwx.info

Track history (hours):
 
Tides and Currents Weather Stations Pressure Air Temp Water Temp Dewpoint Dewpoint Depression Visibility Wind Speed Wind Dir Waves Ship Positions

Vidnoe

Last reported at 2016-May-28 03:32 UTC. Time now 2016-May-28 04:05 UTC.
Position N 59°42' E 028°21'.

Length 115 m; beam 17 m.

Type: Tanker. MMSI: 273516400.

Date/timePositionNaut miles runAvg speedWind from/ knotsBaromVisibWave heightAir tempDewpointWater temp
2016-May-28 03:32N 59°42' E 028°21'0 0.0
2016-May-28 02:32N 59°42' E 028°21'0 0.0
2016-May-28 01:32N 59°42' E 028°21'0 0.0
2016-May-28 00:32N 59°42' E 028°21'1 1.5
2016-May-27 23:34N 59°43' E 028°24'2 1.7
2016-May-27 22:29N 59°41' E 028°25'0 0.0
2016-May-27 21:32N 59°41' E 028°25'0 0.0
2016-May-27 20:32N 59°41' E 028°25'0 0.0
2016-May-27 19:32N 59°41' E 028°25'0 0.0
2016-May-27 18:32N 59°41' E 028°25'0 0.0
2016-May-27 17:32N 59°41' E 028°25'0 0.0
2016-May-27 16:32N 59°41' E 028°25'0 0.0
2016-May-27 15:32N 59°41' E 028°25'0 0.0
2016-May-27 14:23N 59°41' E 028°25'0 0.0
2016-May-27 13:23N 59°41' E 028°25'0 0.0
2016-May-27 12:23N 59°41' E 028°25'0 0.0
2016-May-27 11:26N 59°41' E 028°25'0 0.0
2016-May-27 10:29N 59°41' E 028°25'0 0.0
2016-May-27 09:27N 59°41' E 028°25'0 0.0
2016-May-27 08:29N 59°41' E 028°25'0 0.0
2016-May-27 07:32N 59°41' E 028°25'0 0.0
2016-May-27 06:32N 59°41' E 028°25'0 0.0
2016-May-27 05:33N 59°41' E 028°25'3 3.2
2016-May-27 04:33N 59°44' E 028°24'4 4.1
2016-May-27 03:33N 59°48' E 028°25'1111.1
2016-May-27 02:33N 59°58' E 028°35'1110.8
2016-May-27 01:33N 60°03' E 028°55'2010.0
2016-May-26 23:33N 60°01' E 029°35'8 7.8
2016-May-26 22:33N 59°58' E 029°49'6 6.1
2016-May-26 21:33N 59°55' E 030°00'7 6.8
2016-May-26 20:32N 59°53' E 030°13'0 0.1
2016-May-26 19:32N 59°53' E 030°13'0 0.0
2016-May-26 18:32N 59°53' E 030°13'0 0.0
2016-May-26 17:32N 59°53' E 030°13'0 0.0
2016-May-26 16:32N 59°53' E 030°13'0 0.0
2016-May-26 15:32N 59°53' E 030°13'0 0.0
2016-May-26 14:32N 59°53' E 030°13'0 0.0
2016-May-26 13:32N 59°53' E 030°13'0 0.0
2016-May-26 12:32N 59°53' E 030°13'0 0.0
2016-May-26 11:32N 59°53' E 030°13'0 0.0
2016-May-26 10:32N 59°53' E 030°13'0 0.0
2016-May-26 09:32N 59°53' E 030°13'0 0.0
2016-May-26 08:32N 59°53' E 030°13'0 0.0
2016-May-26 07:32N 59°53' E 030°13'0 0.0
2016-May-26 06:32N 59°53' E 030°13'0 0.0
2016-May-26 05:32N 59°53' E 030°13'0 0.4
2016-May-26 04:32N 59°53' E 030°13'0 0.1
2016-May-26 03:32N 59°53' E 030°14'0 0.0
2016-May-26 02:32N 59°53' E 030°14'0 0.0
2016-May-26 01:32N 59°53' E 030°14'0 0.0
2016-May-26 00:32N 59°53' E 030°14'0 0.0
2016-May-25 23:32N 59°53' E 030°14'0 0.0
2016-May-25 22:32N 59°53' E 030°14'0 0.0
2016-May-25 21:32N 59°53' E 030°14'0 0.0
2016-May-25 20:32N 59°53' E 030°14'0 0.1
2016-May-25 19:32N 59°53' E 030°13'0 0.5
2016-May-25 18:32N 59°53' E 030°13'0 0.0
2016-May-25 17:32N 59°53' E 030°13'0 0.0
2016-May-25 16:32N 59°53' E 030°13'0 0.0
2016-May-25 15:33N 59°53' E 030°13'4 3.9
2016-May-25 14:33N 59°54' E 030°06'1111.0
2016-May-25 13:33N 59°59' E 029°46'1110.8
2016-May-25 12:33N 60°01' E 029°25'6 5.7
2016-May-25 11:33N 60°01' E 029°14'8 8.0
2016-May-25 10:33N 60°02' E 028°58'1111.0
2016-May-25 09:33N 59°57' E 028°38'2 1.6
2016-May-25 08:26N 59°55' E 028°36'0 0.0
2016-May-25 07:26N 59°55' E 028°36'0 0.0
2016-May-25 06:29N 59°55' E 028°36'0 0.0
2016-May-25 05:29N 59°55' E 028°36'0 0.0
2016-May-25 04:29N 59°55' E 028°36'0 0.0
2016-May-25 03:32N 59°55' E 028°36'0 0.0
2016-May-25 02:32N 59°55' E 028°36'0 0.0
2016-May-25 01:32N 59°55' E 028°36'0 0.0
2016-May-25 00:32N 59°55' E 028°36'0 0.0
2016-May-24 23:32N 59°55' E 028°36'0 0.0
2016-May-24 22:32N 59°55' E 028°36'0 0.0
2016-May-24 21:32N 59°55' E 028°36'0 0.0
2016-May-24 20:23N 59°55' E 028°36'0 0.0
2016-May-24 19:26N 59°55' E 028°36'0 0.0
2016-May-24 18:26N 59°55' E 028°36'0 0.0
2016-May-24 17:26N 59°55' E 028°36'0 0.0
2016-May-24 16:29N 59°55' E 028°36'0 0.0
2016-May-24 15:26N 59°55' E 028°36'0 0.0
2016-May-24 14:32N 59°55' E 028°36'0 0.0
2016-May-24 13:29N 59°55' E 028°37'0 0.0
2016-May-24 12:32N 59°55' E 028°37'0 0.0
2016-May-24 11:32N 59°55' E 028°37'0 0.1
2016-May-24 10:32N 59°55' E 028°36'0 0.0
2016-May-24 09:32N 59°55' E 028°36'0 0.0
2016-May-24 08:32N 59°55' E 028°36'0 0.0
2016-May-24 07:23N 59°55' E 028°36'0 0.0
2016-May-24 06:23N 59°55' E 028°36'0 0.0
2016-May-24 05:26N 59°55' E 028°36'0 0.0
2016-May-24 04:26N 59°55' E 028°36'0 0.0
2016-May-24 03:26N 59°55' E 028°36'0 0.0
2016-May-24 02:29N 59°55' E 028°36'0 0.0
2016-May-24 01:29N 59°55' E 028°36'6 6.1
2016-May-24 00:33N 59°60' E 028°43'1312.2
2016-May-23 23:30N 60°02' E 029°08'1111.9
2016-May-23 22:32N 60°01' E 029°31'1212.0
2016-May-23 21:33N 59°57' E 029°53'1010.3
2016-May-23 20:33N 59°53' E 030°12'1 0.7
2016-May-23 19:32N 59°53' E 030°13'0 0.0
2016-May-23 18:32N 59°53' E 030°13'0 0.0
2016-May-23 17:32N 59°53' E 030°13'0 0.0
2016-May-23 16:32N 59°53' E 030°13'0 0.0
2016-May-23 15:32N 59°53' E 030°13'0 0.0
2016-May-23 14:32N 59°53' E 030°13'0 0.0
2016-May-23 13:32N 59°53' E 030°13'0 0.0
2016-May-23 12:32N 59°53' E 030°13'0 0.0
2016-May-23 11:32N 59°53' E 030°13'0 0.0
2016-May-23 10:32N 59°53' E 030°13'0 0.0
2016-May-23 09:32N 59°53' E 030°13'0 0.0
2016-May-23 08:32N 59°53' E 030°13'0 0.0
2016-May-23 07:32N 59°53' E 030°13'0 0.0
2016-May-23 06:32N 59°53' E 030°13'0 0.0
2016-May-23 05:32N 59°53' E 030°13'0 0.0
2016-May-23 04:32N 59°53' E 030°13'0 0.0
2016-May-23 03:32N 59°53' E 030°13'0 0.0
2016-May-23 02:32N 59°53' E 030°13'0 0.0
2016-May-23 01:32N 59°53' E 030°13'0 0.0
2016-May-23 00:32N 59°53' E 030°13'0 0.0
2016-May-22 23:32N 59°53' E 030°13'0 0.0
2016-May-22 22:32N 59°53' E 030°13'0 0.0
2016-May-22 21:32N 59°53' E 030°13'0 0.0
2016-May-22 20:32N 59°53' E 030°13'0 0.0
2016-May-22 19:32N 59°53' E 030°13'0 0.0
2016-May-22 18:32N 59°53' E 030°13'0 0.0
2016-May-22 17:32N 59°53' E 030°13'0 0.0
2016-May-22 16:32N 59°53' E 030°13'0 0.0
2016-May-22 15:32N 59°53' E 030°13'0 0.0
2016-May-22 14:32N 59°53' E 030°13'0 0.0
2016-May-22 13:32N 59°53' E 030°13'0 0.0
2016-May-22 12:32N 59°53' E 030°13'0 0.0
2016-May-22 11:32N 59°53' E 030°13'0 0.0
2016-May-22 10:32N 59°53' E 030°13'0 0.0
2016-May-22 09:32N 59°53' E 030°13'0 0.0
2016-May-22 08:32N 59°53' E 030°13'0 0.0
2016-May-22 07:32N 59°53' E 030°13'0 0.0
2016-May-22 06:32N 59°53' E 030°13'0 0.0
2016-May-22 05:32N 59°53' E 030°13'0 0.0
2016-May-22 04:32N 59°53' E 030°13'0 0.0
2016-May-22 03:32N 59°53' E 030°13'0 0.0
2016-May-22 02:32N 59°53' E 030°13'0 0.0
2016-May-22 01:32N 59°53' E 030°13'0 0.0
2016-May-22 00:32N 59°53' E 030°13'0 0.0
2016-May-21 23:32N 59°53' E 030°13'0 0.0
2016-May-21 22:32N 59°53' E 030°13'0 0.0
2016-May-21 21:32N 59°53' E 030°13'0 0.0
2016-May-21 20:32N 59°53' E 030°13'0 0.0
2016-May-21 19:32N 59°53' E 030°13'0 0.0
2016-May-21 18:32N 59°53' E 030°13'0 0.0
2016-May-21 17:32N 59°53' E 030°13'0 0.0
2016-May-21 16:32N 59°53' E 030°13'0 0.0
2016-May-21 15:32N 59°53' E 030°13'0 0.0
2016-May-21 14:32N 59°53' E 030°13'0 0.0
2016-May-21 13:32N 59°53' E 030°13'0 0.0
2016-May-21 12:32N 59°53' E 030°13'0 0.0
2016-May-21 11:32N 59°53' E 030°13'0 0.0
2016-May-21 10:32N 59°53' E 030°13'0 0.0
2016-May-21 09:29N 59°53' E 030°13'0 0.0
2016-May-21 08:32N 59°53' E 030°13'0 0.0
2016-May-21 07:32N 59°53' E 030°13'0 0.0
2016-May-21 06:32N 59°53' E 030°13'0 0.0
2016-May-21 05:32N 59°53' E 030°13'0 0.0
2016-May-21 04:32N 59°53' E 030°13'0 0.0
2016-May-21 03:32N 59°53' E 030°13'0 0.0
2016-May-21 02:32N 59°53' E 030°13'0 0.0
2016-May-21 01:32N 59°53' E 030°13'0 0.0
2016-May-21 00:32N 59°53' E 030°13'0 0.0
2016-May-20 23:32N 59°53' E 030°13'0 0.0
2016-May-20 22:32N 59°53' E 030°13'0 0.0
2016-May-20 21:32N 59°53' E 030°13'0 0.0
2016-May-20 20:32N 59°53' E 030°13'0 0.0
2016-May-20 19:32N 59°53' E 030°13'0 0.0
2016-May-20 18:32N 59°53' E 030°13'0 0.0
2016-May-20 17:32N 59°53' E 030°13'0 0.0
2016-May-20 16:32N 59°53' E 030°13'0 0.0
2016-May-20 15:32N 59°53' E 030°13'0 0.0
2016-May-20 14:32N 59°53' E 030°13'0 0.0
2016-May-20 13:32N 59°53' E 030°13'0 0.0
2016-May-20 12:32N 59°53' E 030°13'0 0.0
2016-May-20 11:32N 59°53' E 030°13'0 0.0
2016-May-20 10:32N 59°53' E 030°13'0 0.1
2016-May-20 09:32N 59°53' E 030°13'0 0.0
2016-May-20 08:32N 59°53' E 030°13'0 0.0
2016-May-20 07:32N 59°53' E 030°13'0 0.0
2016-May-20 06:32N 59°53' E 030°13'0 0.0
2016-May-20 05:32N 59°53' E 030°13'0 0.0
2016-May-20 04:32N 59°53' E 030°13'0 0.0
2016-May-20 03:32N 59°53' E 030°13'0 0.0
2016-May-20 02:32N 59°53' E 030°13'0 0.0
2016-May-20 01:32N 59°53' E 030°13'0 0.0
2016-May-20 00:32N 59°53' E 030°13'0 0.0
2016-May-19 23:32N 59°53' E 030°13'0 0.0
2016-May-19 22:32N 59°53' E 030°13'0 0.0
2016-May-19 21:32N 59°53' E 030°13'0 0.0
2016-May-19 20:32N 59°53' E 030°13'0 0.0
2016-May-19 19:32N 59°53' E 030°13'0 0.0
2016-May-19 18:32N 59°53' E 030°13'0 0.0
2016-May-19 17:32N 59°53' E 030°13'0 0.0
2016-May-19 16:32N 59°53' E 030°13'0 0.0
2016-May-19 15:32N 59°53' E 030°13'0 0.0
2016-May-19 14:32N 59°53' E 030°13'0 0.0
2016-May-19 13:32N 59°53' E 030°13'0 0.0
2016-May-19 12:32N 59°53' E 030°13'0 0.0
2016-May-19 11:32N 59°53' E 030°13'0 0.0
2016-May-19 10:32N 59°53' E 030°13'0 0.0
2016-May-19 09:32N 59°53' E 030°13'0 0.0
2016-May-19 08:32N 59°53' E 030°13'0 0.0
2016-May-19 07:32N 59°53' E 030°13'0 0.0
2016-May-19 06:32N 59°53' E 030°13'0 0.0
2016-May-19 05:32N 59°53' E 030°13'0 0.0
2016-May-19 04:32N 59°53' E 030°13'0 0.1
2016-May-19 03:33N 59°53' E 030°13'8 8.2
2016-May-19 02:33N 59°56' E 029°58'1010.4
2016-May-19 01:33N 59°60' E 029°39'8 3.8
2016-May-18 23:32N 60°01' E 029°24'0 0.0
2016-May-18 22:29N 60°01' E 029°24'0 0.0
2016-May-18 21:26N 60°01' E 029°24'0 0.1
2016-May-18 20:31N 60°01' E 029°23'9 9.8
2016-May-18 19:33N 60°02' E 029°05'1312.6
2016-May-18 18:33N 59°59' E 028°40'1313.2
2016-May-18 17:33N 59°48' E 028°26'7 6.4
2016-May-18 16:32N 59°42' E 028°26'0 0.0
2016-May-18 15:32N 59°42' E 028°26'0 0.0
2016-May-18 14:32N 59°42' E 028°26'0 0.0
2016-May-18 13:32N 59°42' E 028°26'0 0.0
2016-May-18 12:32N 59°42' E 028°26'0 0.0
2016-May-18 11:32N 59°42' E 028°26'0 0.0
2016-May-18 10:26N 59°42' E 028°26'0 0.0
2016-May-18 09:26N 59°42' E 028°26'0 0.0
2016-May-18 08:26N 59°42' E 028°26'0 0.0
2016-May-18 07:29N 59°42' E 028°26'2 2.0
2016-May-18 06:33N 59°42' E 028°22'0 0.3
2016-May-18 05:29N 59°42' E 028°22'0 0.0
2016-May-18 04:32N 59°42' E 028°22'  
Track history (hours):
 
Tides and Currents Weather Stations Pressure Air Temp Water Temp Dewpoint Dewpoint Depression Visibility Wind Speed Wind Dir Waves Ship Positions

Vidnoe

Last reported at 2016-May-28 03:32 UTC. Time now 2016-May-28 04:05 UTC.
Position N 59°42' E 028°21'.

Length 115 m; beam 17 m.

Type: Tanker. MMSI: 273516400.

Date/timePositionNaut miles runAvg speedWind from/ knotsBaromVisibWave heightAir tempDewpointWater temp
2016-May-28 03:32N 59°42' E 028°21'0 0.0
2016-May-28 02:32N 59°42' E 028°21'0 0.0
2016-May-28 01:32N 59°42' E 028°21'0 0.0
2016-May-28 00:32N 59°42' E 028°21'1 1.5
2016-May-27 23:34N 59°43' E 028°24'2 1.7
2016-May-27 22:29N 59°41' E 028°25'0 0.0
2016-May-27 21:32N 59°41' E 028°25'0 0.0
2016-May-27 20:32N 59°41' E 028°25'0 0.0
2016-May-27 19:32N 59°41' E 028°25'0 0.0
2016-May-27 18:32N 59°41' E 028°25'0 0.0
2016-May-27 17:32N 59°41' E 028°25'0 0.0
2016-May-27 16:32N 59°41' E 028°25'0 0.0
2016-May-27 15:32N 59°41' E 028°25'0 0.0
2016-May-27 14:23N 59°41' E 028°25'0 0.0
2016-May-27 13:23N 59°41' E 028°25'0 0.0
2016-May-27 12:23N 59°41' E 028°25'0 0.0
2016-May-27 11:26N 59°41' E 028°25'0 0.0
2016-May-27 10:29N 59°41' E 028°25'0 0.0
2016-May-27 09:27N 59°41' E 028°25'0 0.0
2016-May-27 08:29N 59°41' E 028°25'0 0.0
2016-May-27 07:32N 59°41' E 028°25'0 0.0
2016-May-27 06:32N 59°41' E 028°25'0 0.0
2016-May-27 05:33N 59°41' E 028°25'3 3.2
2016-May-27 04:33N 59°44' E 028°24'4 4.1
2016-May-27 03:33N 59°48' E 028°25'1111.1
2016-May-27 02:33N 59°58' E 028°35'1110.8
2016-May-27 01:33N 60°03' E 028°55'2010.0
2016-May-26 23:33N 60°01' E 029°35'8 7.8
2016-May-26 22:33N 59°58' E 029°49'6 6.1
2016-May-26 21:33N 59°55' E 030°00'7 6.8
2016-May-26 20:32N 59°53' E 030°13'0 0.1
2016-May-26 19:32N 59°53' E 030°13'0 0.0
2016-May-26 18:32N 59°53' E 030°13'0 0.0
2016-May-26 17:32N 59°53' E 030°13'0 0.0
2016-May-26 16:32N 59°53' E 030°13'0 0.0
2016-May-26 15:32N 59°53' E 030°13'0 0.0
2016-May-26 14:32N 59°53' E 030°13'0 0.0
2016-May-26 13:32N 59°53' E 030°13'0 0.0
2016-May-26 12:32N 59°53' E 030°13'0 0.0
2016-May-26 11:32N 59°53' E 030°13'0 0.0
2016-May-26 10:32N 59°53' E 030°13'0 0.0
2016-May-26 09:32N 59°53' E 030°13'0 0.0
2016-May-26 08:32N 59°53' E 030°13'0 0.0
2016-May-26 07:32N 59°53' E 030°13'0 0.0
2016-May-26 06:32N 59°53' E 030°13'0 0.0
2016-May-26 05:32N 59°53' E 030°13'0 0.4
2016-May-26 04:32N 59°53' E 030°13'0 0.1
2016-May-26 03:32N 59°53' E 030°14'0 0.0
2016-May-26 02:32N 59°53' E 030°14'0 0.0
2016-May-26 01:32N 59°53' E 030°14'0 0.0
2016-May-26 00:32N 59°53' E 030°14'0 0.0
2016-May-25 23:32N 59°53' E 030°14'0 0.0
2016-May-25 22:32N 59°53' E 030°14'0 0.0
2016-May-25 21:32N 59°53' E 030°14'0 0.0
2016-May-25 20:32N 59°53' E 030°14'0 0.1
2016-May-25 19:32N 59°53' E 030°13'0 0.5
2016-May-25 18:32N 59°53' E 030°13'0 0.0
2016-May-25 17:32N 59°53' E 030°13'0 0.0
2016-May-25 16:32N 59°53' E 030°13'0 0.0
2016-May-25 15:33N 59°53' E 030°13'4 3.9
2016-May-25 14:33N 59°54' E 030°06'1111.0
2016-May-25 13:33N 59°59' E 029°46'1110.8
2016-May-25 12:33N 60°01' E 029°25'6 5.7
2016-May-25 11:33N 60°01' E 029°14'8 8.0
2016-May-25 10:33N 60°02' E 028°58'1111.0
2016-May-25 09:33N 59°57' E 028°38'2 1.6
2016-May-25 08:26N 59°55' E 028°36'0 0.0
2016-May-25 07:26N 59°55' E 028°36'0 0.0
2016-May-25 06:29N 59°55' E 028°36'0 0.0
2016-May-25 05:29N 59°55' E 028°36'0 0.0
2016-May-25 04:29N 59°55' E 028°36'0 0.0
2016-May-25 03:32N 59°55' E 028°36'0 0.0
2016-May-25 02:32N 59°55' E 028°36'0 0.0
2016-May-25 01:32N 59°55' E 028°36'0 0.0
2016-May-25 00:32N 59°55' E 028°36'0 0.0
2016-May-24 23:32N 59°55' E 028°36'0 0.0
2016-May-24 22:32N 59°55' E 028°36'0 0.0
2016-May-24 21:32N 59°55' E 028°36'0 0.0
2016-May-24 20:23N 59°55' E 028°36'0 0.0
2016-May-24 19:26N 59°55' E 028°36'0 0.0
2016-May-24 18:26N 59°55' E 028°36'0 0.0
2016-May-24 17:26N 59°55' E 028°36'0 0.0
2016-May-24 16:29N 59°55' E 028°36'0 0.0
2016-May-24 15:26N 59°55' E 028°36'0 0.0
2016-May-24 14:32N 59°55' E 028°36'0 0.0
2016-May-24 13:29N 59°55' E 028°37'0 0.0
2016-May-24 12:32N 59°55' E 028°37'0 0.0
2016-May-24 11:32N 59°55' E 028°37'0 0.1
2016-May-24 10:32N 59°55' E 028°36'0 0.0
2016-May-24 09:32N 59°55' E 028°36'0 0.0
2016-May-24 08:32N 59°55' E 028°36'0 0.0
2016-May-24 07:23N 59°55' E 028°36'0 0.0
2016-May-24 06:23N 59°55' E 028°36'0 0.0
2016-May-24 05:26N 59°55' E 028°36'0 0.0
2016-May-24 04:26N 59°55' E 028°36'0 0.0
2016-May-24 03:26N 59°55' E 028°36'0 0.0
2016-May-24 02:29N 59°55' E 028°36'0 0.0
2016-May-24 01:29N 59°55' E 028°36'6 6.1
2016-May-24 00:33N 59°60' E 028°43'1312.2
2016-May-23 23:30N 60°02' E 029°08'1111.9
2016-May-23 22:32N 60°01' E 029°31'1212.0
2016-May-23 21:33N 59°57' E 029°53'1010.3
2016-May-23 20:33N 59°53' E 030°12'1 0.7
2016-May-23 19:32N 59°53' E 030°13'0 0.0
2016-May-23 18:32N 59°53' E 030°13'0 0.0
2016-May-23 17:32N 59°53' E 030°13'0 0.0
2016-May-23 16:32N 59°53' E 030°13'0 0.0
2016-May-23 15:32N 59°53' E 030°13'0 0.0
2016-May-23 14:32N 59°53' E 030°13'0 0.0
2016-May-23 13:32N 59°53' E 030°13'0 0.0
2016-May-23 12:32N 59°53' E 030°13'0 0.0
2016-May-23 11:32N 59°53' E 030°13'0 0.0
2016-May-23 10:32N 59°53' E 030°13'0 0.0
2016-May-23 09:32N 59°53' E 030°13'0 0.0
2016-May-23 08:32N 59°53' E 030°13'0 0.0
2016-May-23 07:32N 59°53' E 030°13'0 0.0
2016-May-23 06:32N 59°53' E 030°13'0 0.0
2016-May-23 05:32N 59°53' E 030°13'0 0.0
2016-May-23 04:32N 59°53' E 030°13'0 0.0
2016-May-23 03:32N 59°53' E 030°13'0 0.0
2016-May-23 02:32N 59°53' E 030°13'0 0.0
2016-May-23 01:32N 59°53' E 030°13'0 0.0
2016-May-23 00:32N 59°53' E 030°13'0 0.0
2016-May-22 23:32N 59°53' E 030°13'0 0.0
2016-May-22 22:32N 59°53' E 030°13'0 0.0
2016-May-22 21:32N 59°53' E 030°13'0 0.0
2016-May-22 20:32N 59°53' E 030°13'0 0.0
2016-May-22 19:32N 59°53' E 030°13'0 0.0
2016-May-22 18:32N 59°53' E 030°13'0 0.0
2016-May-22 17:32N 59°53' E 030°13'0 0.0
2016-May-22 16:32N 59°53' E 030°13'0 0.0
2016-May-22 15:32N 59°53' E 030°13'0 0.0
2016-May-22 14:32N 59°53' E 030°13'0 0.0
2016-May-22 13:32N 59°53' E 030°13'0 0.0
2016-May-22 12:32N 59°53' E 030°13'0 0.0
2016-May-22 11:32N 59°53' E 030°13'0 0.0
2016-May-22 10:32N 59°53' E 030°13'0 0.0
2016-May-22 09:32N 59°53' E 030°13'0 0.0
2016-May-22 08:32N 59°53' E 030°13'0 0.0
2016-May-22 07:32N 59°53' E 030°13'0 0.0
2016-May-22 06:32N 59°53' E 030°13'0 0.0
2016-May-22 05:32N 59°53' E 030°13'0 0.0
2016-May-22 04:32N 59°53' E 030°13'0 0.0
2016-May-22 03:32N 59°53' E 030°13'0 0.0
2016-May-22 02:32N 59°53' E 030°13'0 0.0
2016-May-22 01:32N 59°53' E 030°13'0 0.0
2016-May-22 00:32N 59°53' E 030°13'0 0.0
2016-May-21 23:32N 59°53' E 030°13'0 0.0
2016-May-21 22:32N 59°53' E 030°13'0 0.0
2016-May-21 21:32N 59°53' E 030°13'0 0.0
2016-May-21 20:32N 59°53' E 030°13'0 0.0
2016-May-21 19:32N 59°53' E 030°13'0 0.0
2016-May-21 18:32N 59°53' E 030°13'0 0.0
2016-May-21 17:32N 59°53' E 030°13'0 0.0
2016-May-21 16:32N 59°53' E 030°13'0 0.0
2016-May-21 15:32N 59°53' E 030°13'0 0.0
2016-May-21 14:32N 59°53' E 030°13'0 0.0
2016-May-21 13:32N 59°53' E 030°13'0 0.0
2016-May-21 12:32N 59°53' E 030°13'0 0.0
2016-May-21 11:32N 59°53' E 030°13'0 0.0
2016-May-21 10:32N 59°53' E 030°13'0 0.0
2016-May-21 09:29N 59°53' E 030°13'0 0.0
2016-May-21 08:32N 59°53' E 030°13'0 0.0
2016-May-21 07:32N 59°53' E 030°13'0 0.0
2016-May-21 06:32N 59°53' E 030°13'0 0.0
2016-May-21 05:32N 59°53' E 030°13'0 0.0
2016-May-21 04:32N 59°53' E 030°13'0 0.0
2016-May-21 03:32N 59°53' E 030°13'0 0.0
2016-May-21 02:32N 59°53' E 030°13'0 0.0
2016-May-21 01:32N 59°53' E 030°13'0 0.0
2016-May-21 00:32N 59°53' E 030°13'0 0.0
2016-May-20 23:32N 59°53' E 030°13'0 0.0
2016-May-20 22:32N 59°53' E 030°13'0 0.0
2016-May-20 21:32N 59°53' E 030°13'0 0.0
2016-May-20 20:32N 59°53' E 030°13'0 0.0
2016-May-20 19:32N 59°53' E 030°13'0 0.0
2016-May-20 18:32N 59°53' E 030°13'0 0.0
2016-May-20 17:32N 59°53' E 030°13'0 0.0
2016-May-20 16:32N 59°53' E 030°13'0 0.0
2016-May-20 15:32N 59°53' E 030°13'0 0.0
2016-May-20 14:32N 59°53' E 030°13'0 0.0
2016-May-20 13:32N 59°53' E 030°13'0 0.0
2016-May-20 12:32N 59°53' E 030°13'0 0.0
2016-May-20 11:32N 59°53' E 030°13'0 0.0
2016-May-20 10:32N 59°53' E 030°13'0 0.1
2016-May-20 09:32N 59°53' E 030°13'0 0.0
2016-May-20 08:32N 59°53' E 030°13'0 0.0
2016-May-20 07:32N 59°53' E 030°13'0 0.0
2016-May-20 06:32N 59°53' E 030°13'0 0.0
2016-May-20 05:32N 59°53' E 030°13'0 0.0
2016-May-20 04:32N 59°53' E 030°13'0 0.0
2016-May-20 03:32N 59°53' E 030°13'0 0.0
2016-May-20 02:32N 59°53' E 030°13'0 0.0
2016-May-20 01:32N 59°53' E 030°13'0 0.0
2016-May-20 00:32N 59°53' E 030°13'0 0.0
2016-May-19 23:32N 59°53' E 030°13'0 0.0
2016-May-19 22:32N 59°53' E 030°13'0 0.0
2016-May-19 21:32N 59°53' E 030°13'0 0.0
2016-May-19 20:32N 59°53' E 030°13'0 0.0
2016-May-19 19:32N 59°53' E 030°13'0 0.0
2016-May-19 18:32N 59°53' E 030°13'0 0.0
2016-May-19 17:32N 59°53' E 030°13'0 0.0
2016-May-19 16:32N 59°53' E 030°13'0 0.0
2016-May-19 15:32N 59°53' E 030°13'0 0.0
2016-May-19 14:32N 59°53' E 030°13'0 0.0
2016-May-19 13:32N 59°53' E 030°13'0 0.0
2016-May-19 12:32N 59°53' E 030°13'0 0.0
2016-May-19 11:32N 59°53' E 030°13'0 0.0
2016-May-19 10:32N 59°53' E 030°13'0 0.0
2016-May-19 09:32N 59°53' E 030°13'0 0.0
2016-May-19 08:32N 59°53' E 030°13'0 0.0
2016-May-19 07:32N 59°53' E 030°13'0 0.0
2016-May-19 06:32N 59°53' E 030°13'0 0.0
2016-May-19 05:32N 59°53' E 030°13'0 0.0
2016-May-19 04:32N 59°53' E 030°13'0 0.1
2016-May-19 03:33N 59°53' E 030°13'8 8.2
2016-May-19 02:33N 59°56' E 029°58'1010.4
2016-May-19 01:33N 59°60' E 029°39'8 3.8
2016-May-18 23:32N 60°01' E 029°24'0 0.0
2016-May-18 22:29N 60°01' E 029°24'0 0.0
2016-May-18 21:26N 60°01' E 029°24'0 0.1
2016-May-18 20:31N 60°01' E 029°23'9 9.8
2016-May-18 19:33N 60°02' E 029°05'1312.6
2016-May-18 18:33N 59°59' E 028°40'1313.2
2016-May-18 17:33N 59°48' E 028°26'7 6.4
2016-May-18 16:32N 59°42' E 028°26'0 0.0
2016-May-18 15:32N 59°42' E 028°26'0 0.0
2016-May-18 14:32N 59°42' E 028°26'0 0.0
2016-May-18 13:32N 59°42' E 028°26'0 0.0
2016-May-18 12:32N 59°42' E 028°26'0 0.0
2016-May-18 11:32N 59°42' E 028°26'0 0.0
2016-May-18 10:26N 59°42' E 028°26'0 0.0
2016-May-18 09:26N 59°42' E 028°26'0 0.0
2016-May-18 08:26N 59°42' E 028°26'0 0.0
2016-May-18 07:29N 59°42' E 028°26'2 2.0
2016-May-18 06:33N 59°42' E 028°22'0 0.3
2016-May-18 05:29N 59°42' E 028°22'0 0.0
2016-May-18 04:32N 59°42' E 028°22'  

Dump ship's entire track history